KSAA

Shively Field Airport

Saratoga, Wyoming, USA
METAR KSAA 200055Z AUTO 23016G21KT 10SM CLR 05/M06 A2978 RMK AO2
Observed Flight Rules
Jan-20 @ 00:55 UTC (30 minutes ago) Visual Flight Rules
Wind Visibility Clouds
230° at 16 knots
 Gusting to 21 knots
10 miles
  • Clear skies
Temperatures Readings
Current 5°C / 41°F
Dewpoint -6°C / 21°F
Humidity 45%
Altimeter 29.78" Hg
Pressure 1008 hPa
Elevation 2138
METAR KSAA 200055Z AUTO 23016G21KT 10SM CLR 05/M06 A2978 RMK AO2
Observed Flight Rules
Jan-20 @ 00:55 UTC
(30 minutes ago)
VFR
Wind Visibility
230° at 16 knots
 Gusting to 21 knots
10 miles
Clouds
  • Clear skies
Temperature Dewpoint
5°C / 41°F -6°C / 21°F
Humidity Altimeter Pressure
45% 29.78" Hg 1008 hPa